createdAt,value
2023-04-19T00:00:49.677Z,100961.52
2023-04-19T00:03:03.112Z,100964.84
2023-04-19T00:05:16.000Z,100965.63
2023-04-19T00:07:28.573Z,100967.36
2023-04-19T00:09:41.183Z,100963.77
2023-04-19T00:11:53.835Z,100959.91
2023-04-19T00:14:06.465Z,100958.34
2023-04-19T00:16:19.057Z,100956.48
2023-04-19T00:18:31.613Z,100950.00
2023-04-19T00:20:44.528Z,100954.05
2023-04-19T00:22:59.154Z,100952.64
2023-04-19T00:25:11.712Z,100946.93
2023-04-19T00:27:24.364Z,100942.98
2023-04-19T00:29:36.980Z,100943.05
2023-04-19T00:31:49.597Z,100939.87
2023-04-19T00:34:02.159Z,100935.96
2023-04-19T00:36:14.737Z,100930.83
2023-04-19T00:38:27.275Z,100926.80
2023-04-19T00:40:39.839Z,100928.09
2023-04-19T00:42:52.435Z,100924.91
2023-04-19T00:45:05.667Z,100926.34
2023-04-19T00:47:18.602Z,100923.41
2023-04-19T00:49:31.611Z,100923.60
2023-04-19T00:51:44.567Z,100925.10
2023-04-19T00:53:58.118Z,100923.29
2023-04-19T00:56:11.204Z,100919.54
2023-04-19T00:58:23.822Z,100915.61
2023-04-19T01:00:37.217Z,100915.56
2023-04-19T01:02:49.896Z,100909.19
2023-04-19T01:05:03.422Z,100910.89
2023-04-19T01:07:16.124Z,100904.25
2023-04-19T01:09:28.721Z,100901.30
2023-04-19T01:11:43.206Z,100896.48
2023-04-19T01:13:56.751Z,100889.42
2023-04-19T01:16:09.541Z,100890.75
2023-04-19T01:18:24.368Z,100887.29
2023-04-19T01:20:37.038Z,100886.69
2023-04-19T01:22:49.604Z,100885.19
2023-04-19T01:25:02.143Z,100881.55
2023-04-19T01:27:16.638Z,100879.86
2023-04-19T01:29:29.215Z,100882.73
2023-04-19T01:31:41.906Z,100877.77
2023-04-19T01:33:54.512Z,100876.90
2023-04-19T01:36:07.718Z,100877.06
2023-04-19T01:38:20.466Z,100876.11
2023-04-19T01:40:33.072Z,100875.00
2023-04-19T01:42:45.624Z,100875.23
2023-04-19T01:44:58.128Z,100869.20
2023-04-19T01:47:11.194Z,100868.55
2023-04-19T01:49:23.895Z,100871.44
2023-04-19T01:51:38.690Z,100870.98
2023-04-19T01:53:53.673Z,100868.97
2023-04-19T01:56:06.343Z,100868.87
2023-04-19T01:58:18.978Z,100870.30
2023-04-19T02:00:31.564Z,100867.98
2023-04-19T02:02:44.759Z,100867.20
2023-04-19T02:04:57.910Z,100866.94
2023-04-19T02:07:10.513Z,100865.39
2023-04-19T02:09:23.173Z,100866.69
2023-04-19T02:11:35.751Z,100863.20
2023-04-19T02:13:48.435Z,100867.30
2023-04-19T02:16:04.350Z,100864.83
2023-04-19T02:18:17.515Z,100866.74
2023-04-19T02:20:31.187Z,100866.69
2023-04-19T02:22:44.023Z,100866.80
2023-04-19T02:24:56.612Z,100870.19
2023-04-19T02:27:09.185Z,100872.90
2023-04-19T02:29:21.723Z,100866.36
2023-04-19T02:31:34.272Z,100864.02
2023-04-19T02:33:46.982Z,100861.61
2023-04-19T02:35:59.547Z,100864.59
2023-04-19T02:38:12.101Z,100861.02
2023-04-19T02:40:25.582Z,100858.53
2023-04-19T02:42:38.132Z,100854.10
2023-04-19T02:44:50.793Z,100848.42
2023-04-19T02:47:03.373Z,100849.55
2023-04-19T02:49:16.180Z,100850.48
2023-04-19T02:51:29.458Z,100845.82
2023-04-19T02:53:42.082Z,100842.86
2023-04-19T02:55:55.097Z,100845.48
2023-04-19T02:58:07.755Z,100845.50
2023-04-19T03:00:20.482Z,100844.15
2023-04-19T03:02:33.184Z,100842.61
2023-04-19T03:04:47.247Z,100842.08
2023-04-19T03:06:59.884Z,100840.73
2023-04-19T03:09:12.435Z,100837.52
2023-04-19T03:11:25.076Z,100833.95
2023-04-19T03:13:37.784Z,100831.94
2023-04-19T03:15:50.855Z,100828.58
2023-04-19T03:18:03.603Z,100828.36
2023-04-19T03:20:17.101Z,100830.36
2023-04-19T03:22:29.664Z,100826.02
2023-04-19T03:24:42.531Z,100823.92
2023-04-19T03:26:55.685Z,100823.96
2023-04-19T03:29:08.255Z,100824.55
2023-04-19T03:31:20.855Z,100823.73
2023-04-19T03:33:33.448Z,100823.51
2023-04-19T03:35:45.999Z,100825.83
2023-04-19T03:37:58.911Z,100825.63
2023-04-19T03:40:11.821Z,100826.76
2023-04-19T03:42:24.765Z,100826.16
2023-04-19T03:44:38.189Z,100824.19
2023-04-19T03:46:50.743Z,100820.95
2023-04-19T03:49:03.466Z,100822.05
2023-04-19T03:51:16.328Z,100818.86
2023-04-19T03:53:28.879Z,100820.42
2023-04-19T03:55:41.418Z,100822.00
2023-04-19T03:57:53.946Z,100828.75
2023-04-19T04:00:09.648Z,100827.96
2023-04-19T04:02:22.467Z,100826.14
2023-04-19T04:04:35.515Z,100827.62
2023-04-19T04:06:48.242Z,100827.45
2023-04-19T04:09:00.996Z,100828.63
2023-04-19T04:11:13.666Z,100830.34
2023-04-19T04:13:26.204Z,100828.73
2023-04-19T04:15:38.726Z,100824.67
2023-04-19T04:17:51.663Z,100824.62
2023-04-19T04:20:05.668Z,100827.70
2023-04-19T04:22:18.325Z,100824.75
2023-04-19T04:24:32.845Z,100827.94
2023-04-19T04:26:45.615Z,100829.15
2023-04-19T04:28:58.162Z,100833.58
2023-04-19T04:31:12.759Z,100833.35
2023-04-19T04:33:26.780Z,100827.03
2023-04-19T04:35:39.766Z,100825.02
2023-04-19T04:37:53.915Z,100828.94
2023-04-19T04:40:08.108Z,100831.67
2023-04-19T04:42:21.552Z,100831.11
2023-04-19T04:44:37.157Z,100831.51
2023-04-19T04:46:50.111Z,100832.41
2023-04-19T04:49:03.245Z,100832.23
2023-04-19T04:51:15.816Z,100833.46
2023-04-19T04:53:28.460Z,100832.44
2023-04-19T04:55:41.070Z,100830.36
2023-04-19T04:57:53.702Z,100830.55
2023-04-19T05:00:07.014Z,100829.14
2023-04-19T05:02:19.773Z,100830.34
2023-04-19T05:04:33.250Z,100830.19
2023-04-19T05:06:45.923Z,100829.66
2023-04-19T05:08:58.450Z,100831.71
2023-04-19T05:11:11.042Z,100826.76
2023-04-19T05:13:23.637Z,100828.82
2023-04-19T05:15:36.257Z,100831.56
2023-04-19T05:17:48.876Z,100828.61
2023-04-19T05:20:01.755Z,100828.89
2023-04-19T05:22:14.471Z,100827.98
2023-04-19T05:24:27.430Z,100827.25
2023-04-19T05:26:39.930Z,100826.39
2023-04-19T05:28:52.474Z,100825.02
2023-04-19T05:31:05.214Z,100825.72
2023-04-19T05:33:17.794Z,100824.84
2023-04-19T05:35:30.519Z,100821.38
2023-04-19T05:37:43.768Z,100817.36
2023-04-19T05:39:57.144Z,100814.96
2023-04-19T05:42:09.687Z,100812.08
2023-04-19T05:44:22.271Z,100814.45
2023-04-19T05:46:34.919Z,100812.77
2023-04-19T05:48:47.502Z,100811.79
2023-04-19T05:51:00.071Z,100807.91
2023-04-19T05:53:12.596Z,100806.44
2023-04-19T05:55:25.332Z,100803.96
2023-04-19T05:57:37.819Z,100800.34
2023-04-19T05:59:50.411Z,100799.21
2023-04-19T06:02:03.367Z,100801.90
2023-04-19T06:04:16.780Z,100806.02
2023-04-19T06:06:29.852Z,100804.17
2023-04-19T06:08:42.383Z,100803.77
2023-04-19T06:11:00.144Z,100802.52
2023-04-19T06:13:17.672Z,100798.23
2023-04-19T06:15:30.924Z,100795.04
2023-04-19T06:17:43.754Z,100795.41
2023-04-19T06:19:56.399Z,100794.77
2023-04-19T06:22:09.025Z,100790.25
2023-04-19T06:24:21.602Z,100790.84
2023-04-19T06:26:34.154Z,100790.44
2023-04-19T06:28:46.781Z,100791.20
2023-04-19T06:30:59.273Z,100790.61
2023-04-19T06:33:11.816Z,100794.02
2023-04-19T06:35:25.333Z,100796.30
2023-04-19T06:37:38.237Z,100799.71
2023-04-19T06:39:50.883Z,100796.54
2023-04-19T06:42:03.815Z,100795.28
2023-04-19T06:44:16.468Z,100800.25
2023-04-19T06:46:29.238Z,100804.67
2023-04-19T06:48:41.929Z,100800.14
2023-04-19T06:50:55.006Z,100802.77
2023-04-19T06:53:07.529Z,100802.67
2023-04-19T06:55:20.242Z,100798.66
2023-04-19T06:57:33.114Z,100798.12
2023-04-19T06:59:45.849Z,100795.83
2023-04-19T07:01:58.612Z,100789.90
2023-04-19T07:04:12.412Z,100791.55
2023-04-19T07:06:24.982Z,100791.84
2023-04-19T07:08:49.175Z,100785.61
2023-04-19T07:11:02.234Z,100785.77
2023-04-19T07:13:14.818Z,100786.41
2023-04-19T07:15:27.570Z,100787.35
2023-04-19T07:17:40.634Z,100785.32
2023-04-19T07:19:53.188Z,100784.20
2023-04-19T07:22:06.238Z,100782.01
2023-04-19T07:24:18.862Z,100788.80
2023-04-19T07:26:31.565Z,100792.36
2023-04-19T07:28:44.146Z,100788.98
2023-04-19T07:30:57.749Z,100788.77
2023-04-19T07:33:10.793Z,100789.98
2023-04-19T07:35:23.455Z,100792.96
2023-04-19T07:37:36.044Z,100794.36
2023-04-19T07:39:48.679Z,100794.67
2023-04-19T07:42:01.688Z,100796.61
2023-04-19T07:44:14.500Z,100794.66
2023-04-19T07:46:27.575Z,100791.21
2023-04-19T07:48:40.356Z,100788.18
2023-04-19T07:50:53.062Z,100785.06
2023-04-19T07:53:05.685Z,100787.17
2023-04-19T07:55:18.868Z,100785.30
2023-04-19T07:57:31.665Z,100781.21
2023-04-19T07:59:44.205Z,100785.69
2023-04-19T08:01:56.832Z,100778.45
2023-04-19T08:04:11.229Z,100780.20
2023-04-19T08:06:23.934Z,100781.27
2023-04-19T08:08:37.224Z,100785.03
2023-04-19T08:10:49.807Z,100786.39
2023-04-19T08:13:05.818Z,100784.90
2023-04-19T08:15:51.340Z,100776.73
2023-04-19T08:17:51.475Z,100765.72
2023-04-19T08:20:06.801Z,100764.15
2023-04-19T08:22:21.141Z,100763.11
2023-04-19T08:24:33.705Z,100763.67
2023-04-19T08:26:53.457Z,100770.04
2023-04-19T08:29:06.031Z,100775.20
2023-04-19T08:31:20.844Z,100781.98
2023-04-19T08:33:33.545Z,100779.98
2023-04-19T08:35:46.127Z,100783.66
2023-04-19T08:37:58.658Z,100783.89
2023-04-19T08:40:11.414Z,100778.70
2023-04-19T08:42:33.220Z,100783.59
2023-04-19T08:45:06.301Z,100785.91
2023-04-19T08:47:31.230Z,100784.59
2023-04-19T08:49:45.698Z,100786.89
2023-04-19T08:51:59.362Z,100786.13
2023-04-19T08:54:11.901Z,100788.69
2023-04-19T08:56:34.967Z,100787.51
2023-04-19T09:01:05.805Z,100788.81
2023-04-19T09:03:18.762Z,100783.52
2023-04-19T09:05:31.846Z,100785.70
2023-04-19T09:07:46.620Z,100783.12
2023-04-19T09:10:11.240Z,100782.34
2023-04-19T09:12:24.591Z,100780.70
2023-04-19T09:14:53.820Z,100775.98
2023-04-19T09:17:16.918Z,100772.39
2023-04-19T09:19:45.788Z,100770.05
2023-04-19T09:22:12.639Z,100766.92
2023-04-19T09:25:15.441Z,100761.50
2023-04-19T09:27:14.935Z,100761.98
2023-04-19T09:29:27.589Z,100760.89
2023-04-19T09:33:56.054Z,100758.02
2023-04-19T09:36:09.092Z,100758.83
2023-04-19T09:38:21.710Z,100760.52
2023-04-19T09:40:34.704Z,100758.61
2023-04-19T09:47:29.927Z,100758.33
2023-04-19T09:49:49.132Z,100759.71
2023-04-19T09:52:03.843Z,100761.14
2023-04-19T09:54:18.188Z,100756.12
2023-04-19T09:56:30.882Z,100756.94
2023-04-19T09:58:51.184Z,100755.83
2023-04-19T10:01:15.514Z,100758.50
2023-04-19T10:03:30.182Z,100754.50
2023-04-19T10:05:44.519Z,100755.54
2023-04-19T10:08:00.178Z,100757.00
2023-04-19T10:10:20.983Z,100753.24
2023-04-19T10:14:51.602Z,100752.33
2023-04-19T10:17:04.704Z,100751.02
2023-04-19T10:19:19.223Z,100751.95
2023-04-19T10:21:32.822Z,100752.34
2023-04-19T10:23:46.171Z,100751.11
2023-04-19T10:25:59.545Z,100748.79
2023-04-19T10:28:12.122Z,100746.17
2023-04-19T10:30:28.655Z,100750.25
2023-04-19T10:32:43.559Z,100747.80
2023-04-19T10:35:02.664Z,100747.40
2023-04-19T10:37:15.235Z,100747.54
2023-04-19T10:39:44.705Z,100743.63
2023-04-19T10:41:58.668Z,100745.55
2023-04-19T10:44:12.060Z,100743.55
2023-04-19T10:46:26.009Z,100740.33
2023-04-19T10:48:43.741Z,100740.63
2023-04-19T10:51:07.508Z,100738.43
2023-04-19T10:53:48.080Z,100738.06
2023-04-19T10:56:00.718Z,100738.02
2023-04-19T10:58:13.257Z,100734.37
2023-04-19T11:00:31.214Z,100734.70
2023-04-19T11:02:44.096Z,100733.08
2023-04-19T11:04:56.659Z,100733.48
2023-04-19T11:07:09.213Z,100729.91
2023-04-19T11:09:34.666Z,100729.96
2023-04-19T11:11:47.307Z,100728.78
2023-04-19T11:14:02.473Z,100732.09
2023-04-19T11:16:15.926Z,100731.13
2023-04-19T11:18:30.076Z,100728.84
2023-04-19T11:20:43.583Z,100728.35
2023-04-19T11:23:00.958Z,100728.73
2023-04-19T11:25:17.274Z,100722.73
2023-04-19T11:27:29.880Z,100728.30
2023-04-19T11:29:42.515Z,100726.17
2023-04-19T11:31:55.109Z,100724.44
2023-04-19T11:34:07.740Z,100732.75
2023-04-19T11:36:20.496Z,100732.61
2023-04-19T11:38:33.190Z,100734.50
2023-04-19T11:40:46.126Z,100732.58
2023-04-19T11:43:01.049Z,100731.33
2023-04-19T11:45:35.416Z,100732.52
2023-04-19T11:47:51.094Z,100729.55
2023-04-19T11:50:35.917Z,100732.05
2023-04-19T11:52:51.719Z,100727.23
2023-04-19T11:55:18.654Z,100728.07
2023-04-19T11:57:31.412Z,100726.95
2023-04-19T12:00:11.717Z,100727.79
2023-04-19T12:02:24.415Z,100722.30
2023-04-19T12:04:38.451Z,100726.33
2023-04-19T12:06:59.630Z,100726.20
2023-04-19T12:09:12.225Z,100729.77
2023-04-19T12:11:26.836Z,100728.09
2023-04-19T12:13:40.914Z,100729.89
2023-04-19T12:15:53.883Z,100731.45
2023-04-19T12:18:06.654Z,100726.13
2023-04-19T12:20:33.817Z,100729.10
2023-04-19T12:22:46.319Z,100727.59
2023-04-19T12:24:59.050Z,100726.63
2023-04-19T12:27:11.725Z,100727.41
2023-04-19T12:29:24.385Z,100725.73
2023-04-19T12:31:36.953Z,100724.58
2023-04-19T12:33:50.170Z,100722.30
2023-04-19T12:36:02.711Z,100723.20
2023-04-19T12:38:15.305Z,100723.61
2023-04-19T12:40:29.058Z,100723.55
2023-04-19T12:42:41.611Z,100725.80
2023-04-19T12:44:54.186Z,100724.91
2023-04-19T12:47:06.723Z,100725.27
2023-04-19T12:49:20.085Z,100727.77
2023-04-19T12:51:32.796Z,100732.05
2023-04-19T12:53:49.448Z,100734.95
2023-04-19T12:56:02.030Z,100734.71
2023-04-19T12:58:15.816Z,100732.66
2023-04-19T13:00:30.069Z,100734.42
2023-04-19T13:02:43.172Z,100734.98
2023-04-19T13:04:55.986Z,100734.63
2023-04-19T13:07:08.684Z,100737.09
2023-04-19T13:09:21.615Z,100733.55
2023-04-19T13:11:34.291Z,100735.66
2023-04-19T13:13:46.832Z,100731.71
2023-04-19T13:15:59.471Z,100729.90
2023-04-19T13:18:12.226Z,100728.73
2023-04-19T13:20:24.761Z,100727.47
2023-04-19T13:22:37.372Z,100722.06
2023-04-19T13:24:49.921Z,100723.73
2023-04-19T13:27:02.741Z,100724.14
2023-04-19T13:29:15.496Z,100720.95
2023-04-19T13:31:29.328Z,100724.73
2023-04-19T13:33:42.160Z,100724.50
2023-04-19T13:35:54.767Z,100726.73
2023-04-19T13:38:07.451Z,100725.48
2023-04-19T13:40:20.220Z,100724.30
2023-04-19T13:42:32.845Z,100722.73
2023-04-19T13:44:45.415Z,100722.58
2023-04-19T13:46:58.011Z,100717.25
2023-04-19T13:49:10.576Z,100715.98
2023-04-19T13:51:23.109Z,100713.84
2023-04-19T13:53:35.743Z,100715.09
2023-04-19T13:55:48.632Z,100713.61
2023-04-19T13:58:01.648Z,100714.02
2023-04-19T14:00:14.999Z,100715.49
2023-04-19T14:02:28.375Z,100717.23
2023-04-19T14:04:41.322Z,100722.66
2023-04-19T14:06:53.867Z,100724.02
2023-04-19T14:09:06.805Z,100722.80
2023-04-19T14:11:19.715Z,100723.33
2023-04-19T14:13:32.262Z,100722.42
2023-04-19T14:15:44.834Z,100721.39
2023-04-19T14:17:57.596Z,100720.96
2023-04-19T14:20:11.108Z,100720.34
2023-04-19T14:22:23.687Z,100716.31
2023-04-19T14:24:36.251Z,100717.44
2023-04-19T14:26:59.896Z,100715.14
2023-04-19T14:29:21.448Z,100711.58
2023-04-19T14:31:34.490Z,100709.93
2023-04-19T14:33:47.083Z,100708.20
2023-04-19T14:35:59.673Z,100710.05
2023-04-19T14:38:12.693Z,100711.11
2023-04-19T14:40:25.500Z,100715.17
2023-04-19T14:42:38.171Z,100711.04
2023-04-19T14:44:52.082Z,100718.03
2023-04-19T14:47:04.710Z,100717.15
2023-04-19T14:49:17.410Z,100715.66
2023-04-19T14:51:30.938Z,100712.29
2023-04-19T14:53:43.456Z,100715.79
2023-04-19T14:55:56.228Z,100715.55
2023-04-19T14:58:08.821Z,100719.12
2023-04-19T15:00:21.419Z,100717.34
2023-04-19T15:02:34.130Z,100719.08
2023-04-19T15:04:47.736Z,100715.67
2023-04-19T15:07:00.429Z,100714.10
2023-04-19T15:09:13.053Z,100712.02
2023-04-19T15:11:25.619Z,100713.83
2023-04-19T15:13:38.157Z,100710.75
2023-04-19T15:15:51.268Z,100712.42
2023-04-19T15:18:04.018Z,100713.58
2023-04-19T15:20:17.010Z,100707.95
2023-04-19T15:22:29.579Z,100709.34
2023-04-19T15:24:42.113Z,100703.91
2023-04-19T15:26:54.625Z,100705.09
2023-04-19T15:29:07.182Z,100698.29
2023-04-19T15:31:19.860Z,100699.49
2023-04-19T15:33:33.541Z,100698.20
2023-04-19T15:35:51.084Z,100697.34
2023-04-19T15:38:03.618Z,100698.30
2023-04-19T15:40:17.078Z,100698.38
2023-04-19T15:42:29.654Z,100699.18
2023-04-19T15:44:44.075Z,100699.27
2023-04-19T15:46:56.918Z,100700.98
2023-04-19T15:49:09.660Z,100701.73
2023-04-19T15:51:22.232Z,100697.81
2023-04-19T15:53:37.916Z,100699.85
2023-04-19T15:55:50.475Z,100704.10
2023-04-19T15:58:04.023Z,100702.03
2023-04-19T16:00:17.103Z,100705.79
2023-04-19T16:02:29.972Z,100708.12
2023-04-19T16:04:42.816Z,100710.20
2023-04-19T16:06:55.498Z,100707.58
2023-04-19T16:09:09.081Z,100707.85
2023-04-19T16:11:21.731Z,100707.82
2023-04-19T16:13:35.674Z,100707.61
2023-04-19T16:15:48.291Z,100709.69
2023-04-19T16:18:01.155Z,100713.14
2023-04-19T16:20:13.802Z,100709.02
2023-04-19T16:22:26.386Z,100709.09
2023-04-19T16:24:39.026Z,100707.70
2023-04-19T16:26:51.582Z,100712.52
2023-04-19T16:29:04.246Z,100711.23
2023-04-19T16:31:16.941Z,100714.68
2023-04-19T16:33:29.732Z,100723.16
2023-04-19T16:35:42.328Z,100722.23
2023-04-19T16:37:57.577Z,100722.41
2023-04-19T16:40:11.243Z,100720.95
2023-04-19T16:42:23.728Z,100719.52
2023-04-19T16:44:36.254Z,100726.33
2023-04-19T16:46:48.833Z,100725.19
2023-04-19T16:49:01.506Z,100725.83
2023-04-19T16:51:14.026Z,100724.52
2023-04-19T16:53:26.574Z,100722.40
2023-04-19T16:55:39.153Z,100722.25
2023-04-19T16:57:53.631Z,100726.80
2023-04-19T17:00:06.938Z,100731.38
2023-04-19T17:02:19.751Z,100736.59
2023-04-19T17:04:32.896Z,100735.95
2023-04-19T17:06:45.679Z,100736.52
2023-04-19T17:08:58.602Z,100737.83
2023-04-19T17:11:11.240Z,100741.31
2023-04-19T17:13:23.857Z,100741.69
2023-04-19T17:15:38.042Z,100742.45
2023-04-19T17:17:50.696Z,100742.55
2023-04-19T17:20:05.909Z,100742.92
2023-04-19T17:22:18.418Z,100745.55
2023-04-19T17:24:32.491Z,100745.08
2023-04-19T17:26:45.042Z,100747.29
2023-04-19T17:28:58.230Z,100745.08
2023-04-19T17:31:11.959Z,100748.42
2023-04-19T17:33:24.533Z,100748.56
2023-04-19T17:35:37.137Z,100746.14
2023-04-19T17:37:49.789Z,100741.98
2023-04-19T17:40:02.415Z,100741.96
2023-04-19T17:42:14.924Z,100742.37
2023-04-19T17:44:27.567Z,100744.48
2023-04-19T17:46:40.462Z,100742.91
2023-04-19T17:48:54.601Z,100748.73
2023-04-19T17:51:07.428Z,100751.46
2023-04-19T17:53:20.158Z,100752.13
2023-04-19T17:55:33.653Z,100753.16
2023-04-19T17:57:46.435Z,100757.73
2023-04-19T18:00:00.198Z,100759.05
2023-04-19T18:02:13.063Z,100762.46
2023-04-19T18:04:26.044Z,100767.23
2023-04-19T18:06:39.042Z,100770.32
2023-04-19T18:08:51.573Z,100767.46
2023-04-19T18:11:04.192Z,100765.07
2023-04-19T18:13:16.757Z,100766.35
2023-04-19T18:15:29.756Z,100768.94
2023-04-19T18:17:42.468Z,100768.64
2023-04-19T18:19:55.179Z,100770.08
2023-04-19T18:22:07.802Z,100774.45
2023-04-19T18:24:20.474Z,100776.52
2023-04-19T18:26:51.203Z,100779.71
2023-04-19T18:29:03.760Z,100779.79
2023-04-19T18:31:16.398Z,100784.10
2023-04-19T18:33:28.920Z,100785.14
2023-04-19T18:35:41.503Z,100783.06
2023-04-19T18:37:54.147Z,100787.02
2023-04-19T18:40:07.833Z,100787.73
2023-04-19T18:42:20.483Z,100784.46
2023-04-19T18:44:52.018Z,100785.34
2023-04-19T18:47:05.838Z,100787.42
2023-04-19T18:49:18.566Z,100788.85
2023-04-19T18:51:32.781Z,100790.61
2023-04-19T18:53:45.552Z,100793.41
2023-04-19T18:55:58.874Z,100795.11
2023-04-19T18:58:11.921Z,100797.59
2023-04-19T19:00:25.154Z,100795.96
2023-04-19T19:02:40.433Z,100793.99
2023-04-19T19:04:58.274Z,100792.75
2023-04-19T19:07:33.238Z,100793.45
2023-04-19T19:09:55.842Z,100796.59
2023-04-19T19:12:09.109Z,100795.72
2023-04-19T19:14:21.661Z,100795.49
2023-04-19T19:18:51.464Z,100788.39
2023-04-19T19:21:05.894Z,100791.50
2023-04-19T19:23:18.432Z,100797.75
2023-04-19T19:25:31.740Z,100797.00
2023-04-19T19:28:02.266Z,100799.55
2023-04-19T19:30:17.021Z,100799.21
2023-04-19T19:32:32.401Z,100804.41
2023-04-19T19:34:54.650Z,100805.88
2023-04-19T19:37:08.599Z,100807.63
2023-04-19T19:39:21.725Z,100804.61
2023-04-19T19:41:56.373Z,100804.38
2023-04-19T19:44:06.967Z,100806.06
2023-04-19T19:46:22.330Z,100804.52
2023-04-19T19:48:40.821Z,100807.18
2023-04-19T19:51:28.642Z,100808.35
2023-04-19T19:53:27.551Z,100810.20
2023-04-19T19:55:40.252Z,100811.46
2023-04-19T20:00:36.763Z,100813.80
2023-04-19T20:02:54.933Z,100818.77
2023-04-19T20:05:10.017Z,100811.41
2023-04-19T20:09:38.319Z,100806.61
2023-04-19T20:11:51.041Z,100807.58
2023-04-19T20:14:03.651Z,100807.01
2023-04-19T20:16:18.603Z,100809.17
2023-04-19T20:18:32.322Z,100803.31
2023-04-19T20:20:44.969Z,100810.77
2023-04-19T20:22:57.639Z,100815.70
2023-04-19T20:25:10.847Z,100815.34
2023-04-19T20:27:23.408Z,100814.27
2023-04-19T20:29:35.929Z,100816.23
2023-04-19T20:31:48.551Z,100818.63
2023-04-19T20:34:01.299Z,100822.45
2023-04-19T20:36:13.978Z,100828.10
2023-04-19T20:38:27.118Z,100829.13
2023-04-19T20:40:40.385Z,100824.85
2023-04-19T20:42:53.093Z,100823.65
2023-04-19T20:45:07.524Z,100826.93
2023-04-19T20:47:20.442Z,100823.12
2023-04-19T20:49:32.980Z,100827.69
2023-04-19T20:51:46.486Z,100830.59
2023-04-19T20:53:59.182Z,100828.61
2023-04-19T20:56:11.758Z,100826.88
2023-04-19T20:58:24.578Z,100827.03
2023-04-19T21:00:37.141Z,100831.66
2023-04-19T21:02:49.858Z,100823.89
2023-04-19T21:05:02.618Z,100823.01
2023-04-19T21:07:15.146Z,100817.68
2023-04-19T21:09:27.850Z,100823.88
2023-04-19T21:11:40.662Z,100821.14
2023-04-19T21:13:53.207Z,100817.49
2023-04-19T21:16:06.176Z,100815.23
2023-04-19T21:18:18.848Z,100815.21
2023-04-19T21:20:31.416Z,100813.98
2023-04-19T21:22:45.793Z,100815.65
2023-04-19T21:24:58.346Z,100817.27
2023-04-19T21:27:11.068Z,100820.66
2023-04-19T21:29:25.233Z,100823.96
2023-04-19T21:31:37.791Z,100818.16
2023-04-19T21:33:50.480Z,100820.03
2023-04-19T21:36:03.387Z,100824.00
2023-04-19T21:38:15.974Z,100827.33
2023-04-19T21:40:28.569Z,100829.96
2023-04-19T21:42:41.126Z,100824.23
2023-04-19T21:44:53.619Z,100824.75
2023-04-19T21:47:07.013Z,100821.38
2023-04-19T21:49:19.508Z,100818.97
2023-04-19T21:51:32.221Z,100819.27
2023-04-19T21:53:44.701Z,100810.88
2023-04-19T21:55:57.216Z,100805.70
2023-04-19T21:58:09.797Z,100801.49
2023-04-19T22:00:24.198Z,100802.48
2023-04-19T22:02:37.104Z,100809.58
2023-04-19T22:04:49.953Z,100819.98
2023-04-19T22:07:03.034Z,100818.20
2023-04-19T22:09:16.116Z,100814.86
2023-04-19T22:11:33.810Z,100812.98
2023-04-19T22:13:47.025Z,100818.33
2023-04-19T22:16:01.444Z,100820.70
2023-04-19T22:18:14.028Z,100818.23
2023-04-19T22:20:28.224Z,100817.92
2023-04-19T22:22:40.826Z,100819.83
2023-04-19T22:24:58.102Z,100814.96
2023-04-19T22:27:10.994Z,100811.03
2023-04-19T22:29:23.623Z,100813.39
2023-04-19T22:31:36.134Z,100817.86
2023-04-19T22:33:48.694Z,100816.65
2023-04-19T22:36:01.215Z,100810.80
2023-04-19T22:38:13.771Z,100813.98
2023-04-19T22:40:26.392Z,100809.69
2023-04-19T22:42:39.008Z,100811.91
2023-04-19T22:44:51.499Z,100814.86
2023-04-19T22:47:04.917Z,100807.81
2023-04-19T22:49:17.630Z,100806.34
2023-04-19T22:51:30.516Z,100808.17
2023-04-19T22:53:43.030Z,100804.82
2023-04-19T22:55:55.602Z,100811.93
2023-04-19T22:58:09.204Z,100814.20
2023-04-19T23:00:22.361Z,100813.83
2023-04-19T23:02:34.975Z,100809.65
2023-04-19T23:04:48.995Z,100812.01
2023-04-19T23:07:01.719Z,100817.14
2023-04-19T23:09:15.274Z,100816.79
2023-04-19T23:11:29.904Z,100814.95
2023-04-19T23:13:42.514Z,100811.84
2023-04-19T23:15:55.354Z,100812.83
2023-04-19T23:18:08.336Z,100816.11
2023-04-19T23:20:21.530Z,100818.92
2023-04-19T23:22:34.051Z,100818.07
2023-04-19T23:24:46.638Z,100810.33
2023-04-19T23:26:59.144Z,100811.88
2023-04-19T23:29:11.653Z,100810.64
2023-04-19T23:31:24.365Z,100802.20
2023-04-19T23:33:36.947Z,100803.22
2023-04-19T23:35:49.633Z,100800.42
2023-04-19T23:38:02.280Z,100796.47
2023-04-19T23:40:15.201Z,100793.25
2023-04-19T23:42:27.740Z,100795.69
2023-04-19T23:44:42.198Z,100793.15
2023-04-19T23:46:56.239Z,100797.80
2023-04-19T23:49:08.819Z,100798.87
2023-04-19T23:51:21.356Z,100795.10
2023-04-19T23:53:33.976Z,100790.80
2023-04-19T23:55:46.487Z,100792.57
2023-04-19T23:57:59.062Z,100791.42
